sensor_id;sensor_type;location;lat;lon;timestamp;temperature;humidity
66726;HTU21D;53638;51.062;5.804;2023-04-25T00:00:26;8.85;118.99
66726;HTU21D;53638;51.062;5.804;2023-04-25T00:02:52;8.80;118.99
66726;HTU21D;53638;51.062;5.804;2023-04-25T00:05:18;8.72;118.99
66726;HTU21D;53638;51.062;5.804;2023-04-25T00:07:45;8.63;118.99
66726;HTU21D;53638;51.062;5.804;2023-04-25T00:10:11;8.56;118.99
66726;HTU21D;53638;51.062;5.804;2023-04-25T00:12:37;8.50;118.99
66726;HTU21D;53638;51.062;5.804;2023-04-25T00:15:04;8.45;118.99
66726;HTU21D;53638;51.062;5.804;2023-04-25T00:17:31;8.42;118.99
66726;HTU21D;53638;51.062;5.804;2023-04-25T00:19:56;8.39;118.99
66726;HTU21D;53638;51.062;5.804;2023-04-25T00:22:23;8.36;118.99
66726;HTU21D;53638;51.062;5.804;2023-04-25T00:24:49;8.35;118.99
66726;HTU21D;53638;51.062;5.804;2023-04-25T00:27:15;8.33;118.99
66726;HTU21D;53638;51.062;5.804;2023-04-25T00:29:41;8.33;118.99
66726;HTU21D;53638;51.062;5.804;2023-04-25T00:32:07;8.32;118.99
66726;HTU21D;53638;51.062;5.804;2023-04-25T00:34:33;8.30;118.99
66726;HTU21D;53638;51.062;5.804;2023-04-25T00:36:59;8.30;118.99
66726;HTU21D;53638;51.062;5.804;2023-04-25T00:39:27;8.30;118.99
66726;HTU21D;53638;51.062;5.804;2023-04-25T00:41:54;8.29;118.99
66726;HTU21D;53638;51.062;5.804;2023-04-25T00:44:20;8.30;118.99
66726;HTU21D;53638;51.062;5.804;2023-04-25T00:46:48;8.32;118.99
66726;HTU21D;53638;51.062;5.804;2023-04-25T00:49:15;8.33;118.99
66726;HTU21D;53638;51.062;5.804;2023-04-25T00:51:43;8.35;118.99
66726;HTU21D;53638;51.062;5.804;2023-04-25T00:54:12;8.37;118.99
66726;HTU21D;53638;51.062;5.804;2023-04-25T00:56:39;8.39;118.99
66726;HTU21D;53638;51.062;5.804;2023-04-25T00:59:05;8.43;118.99
66726;HTU21D;53638;51.062;5.804;2023-04-25T01:01:31;8.46;118.99
66726;HTU21D;53638;51.062;5.804;2023-04-25T01:03:59;8.48;118.99
66726;HTU21D;53638;51.062;5.804;2023-04-25T01:06:26;8.48;118.99
66726;HTU21D;53638;51.062;5.804;2023-04-25T01:08:53;8.47;118.99
66726;HTU21D;53638;51.062;5.804;2023-04-25T01:11:19;8.46;118.99
66726;HTU21D;53638;51.062;5.804;2023-04-25T01:13:46;8.47;118.99
66726;HTU21D;53638;51.062;5.804;2023-04-25T01:16:12;8.46;118.99
66726;HTU21D;53638;51.062;5.804;2023-04-25T01:18:40;8.44;118.99
66726;HTU21D;53638;51.062;5.804;2023-04-25T01:21:08;8.45;118.99
66726;HTU21D;53638;51.062;5.804;2023-04-25T01:23:37;8.46;118.99
66726;HTU21D;53638;51.062;5.804;2023-04-25T01:26:04;8.52;118.99
66726;HTU21D;53638;51.062;5.804;2023-04-25T01:28:30;8.55;118.99
66726;HTU21D;53638;51.062;5.804;2023-04-25T01:30:57;8.59;118.99
66726;HTU21D;53638;51.062;5.804;2023-04-25T01:33:24;8.63;118.99
66726;HTU21D;53638;51.062;5.804;2023-04-25T01:35:50;8.65;118.99
66726;HTU21D;53638;51.062;5.804;2023-04-25T01:38:19;8.65;118.99
66726;HTU21D;53638;51.062;5.804;2023-04-25T01:40:46;8.64;118.99
66726;HTU21D;53638;51.062;5.804;2023-04-25T01:43:12;8.65;118.99
66726;HTU21D;53638;51.062;5.804;2023-04-25T01:45:41;8.63;118.99
66726;HTU21D;53638;51.062;5.804;2023-04-25T01:48:09;8.63;118.99
66726;HTU21D;53638;51.062;5.804;2023-04-25T01:50:36;8.61;118.99
66726;HTU21D;53638;51.062;5.804;2023-04-25T01:53:04;8.59;118.99
66726;HTU21D;53638;51.062;5.804;2023-04-25T01:55:30;8.58;118.99
66726;HTU21D;53638;51.062;5.804;2023-04-25T01:58:02;8.53;118.99
66726;HTU21D;53638;51.062;5.804;2023-04-25T02:00:49;8.50;118.99
66726;HTU21D;53638;51.062;5.804;2023-04-25T02:03:15;8.51;118.99
66726;HTU21D;53638;51.062;5.804;2023-04-25T02:05:41;8.49;118.99
66726;HTU21D;53638;51.062;5.804;2023-04-25T02:08:09;8.47;118.99
66726;HTU21D;53638;51.062;5.804;2023-04-25T02:10:36;8.48;118.99
66726;HTU21D;53638;51.062;5.804;2023-04-25T02:13:14;8.46;118.99
66726;HTU21D;53638;51.062;5.804;2023-04-25T02:15:48;8.48;118.99
66726;HTU21D;53638;51.062;5.804;2023-04-25T02:18:16;8.50;118.99
66726;HTU21D;53638;51.062;5.804;2023-04-25T02:20:44;8.50;118.99
66726;HTU21D;53638;51.062;5.804;2023-04-25T02:23:10;8.50;118.99
66726;HTU21D;53638;51.062;5.804;2023-04-25T02:25:36;8.48;118.99
66726;HTU21D;53638;51.062;5.804;2023-04-25T02:28:02;8.47;118.99
66726;HTU21D;53638;51.062;5.804;2023-04-25T02:30:29;8.48;118.99
66726;HTU21D;53638;51.062;5.804;2023-04-25T02:32:55;8.46;118.99
66726;HTU21D;53638;51.062;5.804;2023-04-25T02:35:22;8.44;118.99
66726;HTU21D;53638;51.062;5.804;2023-04-25T02:37:48;8.43;118.99
66726;HTU21D;53638;51.062;5.804;2023-04-25T02:40:13;8.43;118.99
66726;HTU21D;53638;51.062;5.804;2023-04-25T02:42:39;8.43;118.99
66726;HTU21D;53638;51.062;5.804;2023-04-25T02:45:05;8.45;118.99
66726;HTU21D;53638;51.062;5.804;2023-04-25T02:47:31;8.44;118.99
66726;HTU21D;53638;51.062;5.804;2023-04-25T02:49:57;8.43;118.99
66726;HTU21D;53638;51.062;5.804;2023-04-25T02:52:23;8.45;118.99
66726;HTU21D;53638;51.062;5.804;2023-04-25T02:54:58;8.43;118.99
66726;HTU21D;53638;51.062;5.804;2023-04-25T02:57:25;8.39;118.99
66726;HTU21D;53638;51.062;5.804;2023-04-25T02:59:51;8.41;118.99
66726;HTU21D;53638;51.062;5.804;2023-04-25T03:02:16;8.41;118.99
66726;HTU21D;53638;51.062;5.804;2023-04-25T03:04:42;8.42;118.99
66726;HTU21D;53638;51.062;5.804;2023-04-25T03:07:08;8.39;118.99
66726;HTU21D;53638;51.062;5.804;2023-04-25T03:09:34;8.37;118.99
66726;HTU21D;53638;51.062;5.804;2023-04-25T03:12:00;8.33;118.99
66726;HTU21D;53638;51.062;5.804;2023-04-25T03:14:27;8.31;118.99
66726;HTU21D;53638;51.062;5.804;2023-04-25T03:16:53;8.31;118.99
66726;HTU21D;53638;51.062;5.804;2023-04-25T03:19:19;8.30;118.99
66726;HTU21D;53638;51.062;5.804;2023-04-25T03:21:47;8.31;118.99
66726;HTU21D;53638;51.062;5.804;2023-04-25T03:24:13;8.28;118.99
66726;HTU21D;53638;51.062;5.804;2023-04-25T03:26:38;8.28;118.99
66726;HTU21D;53638;51.062;5.804;2023-04-25T03:29:04;8.26;118.99
66726;HTU21D;53638;51.062;5.804;2023-04-25T03:31:32;8.27;118.99
66726;HTU21D;53638;51.062;5.804;2023-04-25T03:33:58;8.28;118.99
66726;HTU21D;53638;51.062;5.804;2023-04-25T03:36:24;8.27;118.99
66726;HTU21D;53638;51.062;5.804;2023-04-25T03:38:50;8.28;118.99
66726;HTU21D;53638;51.062;5.804;2023-04-25T03:41:17;8.29;118.99
66726;HTU21D;53638;51.062;5.804;2023-04-25T03:43:46;8.28;118.99
66726;HTU21D;53638;51.062;5.804;2023-04-25T03:46:13;8.30;118.99
66726;HTU21D;53638;51.062;5.804;2023-04-25T03:48:40;8.28;118.99
66726;HTU21D;53638;51.062;5.804;2023-04-25T03:51:08;8.28;118.99
66726;HTU21D;53638;51.062;5.804;2023-04-25T03:53:37;8.30;118.99
66726;HTU21D;53638;51.062;5.804;2023-04-25T03:56:15;8.30;118.99
66726;HTU21D;53638;51.062;5.804;2023-04-25T03:58:43;8.31;118.99
66726;HTU21D;53638;51.062;5.804;2023-04-25T04:01:09;8.28;118.99
66726;HTU21D;53638;51.062;5.804;2023-04-25T04:03:37;8.28;118.99
66726;HTU21D;53638;51.062;5.804;2023-04-25T04:06:05;8.26;118.99
66726;HTU21D;53638;51.062;5.804;2023-04-25T04:08:35;8.23;118.99
66726;HTU21D;53638;51.062;5.804;2023-04-25T04:11:01;8.20;118.99
66726;HTU21D;53638;51.062;5.804;2023-04-25T04:13:28;8.18;118.99
66726;HTU21D;53638;51.062;5.804;2023-04-25T04:15:54;8.13;118.99
66726;HTU21D;53638;51.062;5.804;2023-04-25T04:18:21;8.09;118.99
66726;HTU21D;53638;51.062;5.804;2023-04-25T04:20:47;8.07;118.99
66726;HTU21D;53638;51.062;5.804;2023-04-25T04:23:13;8.03;118.99
66726;HTU21D;53638;51.062;5.804;2023-04-25T04:25:39;8.01;118.99
66726;HTU21D;53638;51.062;5.804;2023-04-25T04:28:16;8.00;118.99
66726;HTU21D;53638;51.062;5.804;2023-04-25T04:30:50;7.99;118.99
66726;HTU21D;53638;51.062;5.804;2023-04-25T04:33:18;8.00;118.99
66726;HTU21D;53638;51.062;5.804;2023-04-25T04:35:47;8.00;118.99
66726;HTU21D;53638;51.062;5.804;2023-04-25T04:38:15;8.00;118.99
66726;HTU21D;53638;51.062;5.804;2023-04-25T04:40:41;8.02;118.99
66726;HTU21D;53638;51.062;5.804;2023-04-25T04:43:32;8.03;118.99
66726;HTU21D;53638;51.062;5.804;2023-04-25T04:46:07;8.05;118.99
66726;HTU21D;53638;51.062;5.804;2023-04-25T04:48:54;8.04;118.99
66726;HTU21D;53638;51.062;5.804;2023-04-25T04:51:43;8.04;118.99
66726;HTU21D;53638;51.062;5.804;2023-04-25T04:54:32;8.05;118.99
66726;HTU21D;53638;51.062;5.804;2023-04-25T04:57:19;8.09;118.99
66726;HTU21D;53638;51.062;5.804;2023-04-25T05:00:02;8.13;118.99
66726;HTU21D;53638;51.062;5.804;2023-04-25T05:02:43;8.12;118.99
66726;HTU21D;53638;51.062;5.804;2023-04-25T05:05:22;8.16;118.99
66726;HTU21D;53638;51.062;5.804;2023-04-25T05:08:11;8.21;118.99
66726;HTU21D;53638;51.062;5.804;2023-04-25T05:10:58;8.24;118.99
66726;HTU21D;53638;51.062;5.804;2023-04-25T05:13:51;8.28;118.99
66726;HTU21D;53638;51.062;5.804;2023-04-25T05:16:47;8.33;118.99
66726;HTU21D;53638;51.062;5.804;2023-04-25T05:19:21;8.36;118.99
66726;HTU21D;53638;51.062;5.804;2023-04-25T05:22:13;8.41;118.99
66726;HTU21D;53638;51.062;5.804;2023-04-25T05:25:05;8.47;118.99
66726;HTU21D;53638;51.062;5.804;2023-04-25T05:27:50;8.55;118.99
66726;HTU21D;53638;51.062;5.804;2023-04-25T05:30:39;8.63;118.99
66726;HTU21D;53638;51.062;5.804;2023-04-25T05:33:10;8.70;118.99
66726;HTU21D;53638;51.062;5.804;2023-04-25T05:35:36;8.75;118.99
66726;HTU21D;53638;51.062;5.804;2023-04-25T05:38:02;8.77;118.99
66726;HTU21D;53638;51.062;5.804;2023-04-25T05:40:48;8.78;118.99
66726;HTU21D;53638;51.062;5.804;2023-04-25T05:43:46;8.79;118.99
66726;HTU21D;53638;51.062;5.804;2023-04-25T05:46:27;8.78;118.99
66726;HTU21D;53638;51.062;5.804;2023-04-25T05:49:11;8.79;118.99
66726;HTU21D;53638;51.062;5.804;2023-04-25T05:51:52;8.81;118.99
66726;HTU21D;53638;51.062;5.804;2023-04-25T05:54:29;8.82;118.99
66726;HTU21D;53638;51.062;5.804;2023-04-25T05:56:56;8.86;118.99
66726;HTU21D;53638;51.062;5.804;2023-04-25T05:59:23;8.91;118.99
66726;HTU21D;53638;51.062;5.804;2023-04-25T06:01:49;8.93;118.99
66726;HTU21D;53638;51.062;5.804;2023-04-25T06:04:15;8.97;118.99
66726;HTU21D;53638;51.062;5.804;2023-04-25T06:06:41;9.03;118.99
66726;HTU21D;53638;51.062;5.804;2023-04-25T06:09:07;9.11;118.99
66726;HTU21D;53638;51.062;5.804;2023-04-25T06:11:32;9.20;118.99
66726;HTU21D;53638;51.062;5.804;2023-04-25T06:14:17;9.27;118.99
66726;HTU21D;53638;51.062;5.804;2023-04-25T06:16:47;9.39;118.99
66726;HTU21D;53638;51.062;5.804;2023-04-25T06:19:13;9.45;118.99
66726;HTU21D;53638;51.062;5.804;2023-04-25T06:21:39;9.50;118.99
66726;HTU21D;53638;51.062;5.804;2023-04-25T06:24:05;9.53;118.99
66726;HTU21D;53638;51.062;5.804;2023-04-25T06:26:31;9.57;118.99
66726;HTU21D;53638;51.062;5.804;2023-04-25T06:28:57;9.62;118.99
66726;HTU21D;53638;51.062;5.804;2023-04-25T06:31:23;9.70;118.99
66726;HTU21D;53638;51.062;5.804;2023-04-25T06:33:50;9.80;118.99
66726;HTU21D;53638;51.062;5.804;2023-04-25T06:36:15;9.83;118.99
66726;HTU21D;53638;51.062;5.804;2023-04-25T06:38:43;9.82;118.99
66726;HTU21D;53638;51.062;5.804;2023-04-25T06:41:10;9.81;118.99
66726;HTU21D;53638;51.062;5.804;2023-04-25T06:43:36;9.74;118.99
66726;HTU21D;53638;51.062;5.804;2023-04-25T06:46:24;9.63;118.99
66726;HTU21D;53638;51.062;5.804;2023-04-25T06:48:50;9.60;118.99
66726;HTU21D;53638;51.062;5.804;2023-04-25T06:51:18;9.53;118.99
66726;HTU21D;53638;51.062;5.804;2023-04-25T06:53:45;9.47;118.99
66726;HTU21D;53638;51.062;5.804;2023-04-25T06:56:19;9.57;118.99
66726;HTU21D;53638;51.062;5.804;2023-04-25T06:58:57;9.69;118.99
66726;HTU21D;53638;51.062;5.804;2023-04-25T07:01:29;9.81;118.99
66726;HTU21D;53638;51.062;5.804;2023-04-25T07:03:57;9.85;118.99
66726;HTU21D;53638;51.062;5.804;2023-04-25T07:06:24;9.96;118.99
66726;HTU21D;53638;51.062;5.804;2023-04-25T07:08:51;10.10;118.99
66726;HTU21D;53638;51.062;5.804;2023-04-25T07:11:17;10.16;118.99
66726;HTU21D;53638;51.062;5.804;2023-04-25T07:13:43;10.15;118.99
66726;HTU21D;53638;51.062;5.804;2023-04-25T07:16:09;10.20;118.99
66726;HTU21D;53638;51.062;5.804;2023-04-25T07:18:36;10.29;118.99
66726;HTU21D;53638;51.062;5.804;2023-04-25T07:21:02;10.41;118.99
66726;HTU21D;53638;51.062;5.804;2023-04-25T07:23:30;10.48;118.99
66726;HTU21D;53638;51.062;5.804;2023-04-25T07:25:59;10.58;118.99
66726;HTU21D;53638;51.062;5.804;2023-04-25T07:28:26;10.67;118.99
66726;HTU21D;53638;51.062;5.804;2023-04-25T07:30:52;10.69;118.99
66726;HTU21D;53638;51.062;5.804;2023-04-25T07:33:18;10.75;118.99
66726;HTU21D;53638;51.062;5.804;2023-04-25T07:35:46;10.82;118.99
66726;HTU21D;53638;51.062;5.804;2023-04-25T07:38:12;10.88;118.99
66726;HTU21D;53638;51.062;5.804;2023-04-25T07:40:39;11.03;118.99
66726;HTU21D;53638;51.062;5.804;2023-04-25T07:43:07;11.16;118.99
66726;HTU21D;53638;51.062;5.804;2023-04-25T07:45:49;11.29;118.99
66726;HTU21D;53638;51.062;5.804;2023-04-25T07:48:38;11.33;118.99
66726;HTU21D;53638;51.062;5.804;2023-04-25T07:51:04;11.42;118.99
66726;HTU21D;53638;51.062;5.804;2023-04-25T07:53:31;11.51;118.99
66726;HTU21D;53638;51.062;5.804;2023-04-25T07:56:03;11.59;118.99
66726;HTU21D;53638;51.062;5.804;2023-04-25T07:58:32;11.60;118.99
66726;HTU21D;53638;51.062;5.804;2023-04-25T08:01:04;11.69;118.99
66726;HTU21D;53638;51.062;5.804;2023-04-25T08:04:08;11.75;118.27
66726;HTU21D;53638;51.062;5.804;2023-04-25T08:06:47;11.89;117.89
66726;HTU21D;53638;51.062;5.804;2023-04-25T08:09:20;11.99;116.65
66726;HTU21D;53638;51.062;5.804;2023-04-25T08:11:47;12.04;118.87
66726;HTU21D;53638;51.062;5.804;2023-04-25T08:14:15;12.02;117.12
66726;HTU21D;53638;51.062;5.804;2023-04-25T08:16:43;12.02;116.03
66726;HTU21D;53638;51.062;5.804;2023-04-25T08:19:09;12.13;116.56
66726;HTU21D;53638;51.062;5.804;2023-04-25T08:21:36;12.19;118.99
66726;HTU21D;53638;51.062;5.804;2023-04-25T08:24:06;12.22;118.51
66726;HTU21D;53638;51.062;5.804;2023-04-25T08:26:35;12.18;115.95
66726;HTU21D;53638;51.062;5.804;2023-04-25T08:29:10;12.13;113.12
66726;HTU21D;53638;51.062;5.804;2023-04-25T08:31:43;12.00;110.90
66726;HTU21D;53638;51.062;5.804;2023-04-25T08:37:40;11.90;110.65
66726;HTU21D;53638;51.062;5.804;2023-04-25T08:40:38;11.96;111.04
66726;HTU21D;53638;51.062;5.804;2023-04-25T08:43:37;12.06;109.55
66726;HTU21D;53638;51.062;5.804;2023-04-25T08:46:07;12.17;110.28
66726;HTU21D;53638;51.062;5.804;2023-04-25T08:48:42;12.17;110.22
66726;HTU21D;53638;51.062;5.804;2023-04-25T08:51:21;12.26;110.10
66726;HTU21D;53638;51.062;5.804;2023-04-25T08:54:05;12.38;112.45
66726;HTU21D;53638;51.062;5.804;2023-04-25T08:56:34;12.58;112.49
66726;HTU21D;53638;51.062;5.804;2023-04-25T08:59:02;12.67;112.60
66726;HTU21D;53638;51.062;5.804;2023-04-25T09:01:29;12.72;112.46
66726;HTU21D;53638;51.062;5.804;2023-04-25T09:03:57;12.73;108.79
66726;HTU21D;53638;51.062;5.804;2023-04-25T09:06:23;12.76;108.92
66726;HTU21D;53638;51.062;5.804;2023-04-25T09:08:50;12.82;107.27
66726;HTU21D;53638;51.062;5.804;2023-04-25T09:11:16;12.76;108.97
66726;HTU21D;53638;51.062;5.804;2023-04-25T09:13:43;12.52;112.10
66726;HTU21D;53638;51.062;5.804;2023-04-25T09:17:21;12.20;112.71
66726;HTU21D;53638;51.062;5.804;2023-04-25T09:19:51;12.21;114.55
66726;HTU21D;53638;51.062;5.804;2023-04-25T09:22:27;12.27;114.07
66726;HTU21D;53638;51.062;5.804;2023-04-25T09:24:53;12.40;110.47
66726;HTU21D;53638;51.062;5.804;2023-04-25T09:27:23;12.61;105.14
66726;HTU21D;53638;51.062;5.804;2023-04-25T09:30:18;12.94;102.60
66726;HTU21D;53638;51.062;5.804;2023-04-25T09:33:49;13.07;99.46
66726;HTU21D;53638;51.062;5.804;2023-04-25T09:36:15;12.93;98.26
66726;HTU21D;53638;51.062;5.804;2023-04-25T09:38:59;12.75;100.16
66726;HTU21D;53638;51.062;5.804;2023-04-25T09:41:28;12.73;98.03
66726;HTU21D;53638;51.062;5.804;2023-04-25T09:43:59;12.80;97.65
66726;HTU21D;53638;51.062;5.804;2023-04-25T09:46:34;12.90;98.25
66726;HTU21D;53638;51.062;5.804;2023-04-25T09:49:08;13.07;98.10
66726;HTU21D;53638;51.062;5.804;2023-04-25T09:51:56;13.02;100.19
66726;HTU21D;53638;51.062;5.804;2023-04-25T09:54:24;12.86;103.87
66726;HTU21D;53638;51.062;5.804;2023-04-25T09:57:05;12.51;102.26
66726;HTU21D;53638;51.062;5.804;2023-04-25T09:59:39;12.20;110.41
66726;HTU21D;53638;51.062;5.804;2023-04-25T10:02:08;12.03;111.45
66726;HTU21D;53638;51.062;5.804;2023-04-25T10:04:38;11.94;110.64
66726;HTU21D;53638;51.062;5.804;2023-04-25T10:07:11;11.85;110.62
66726;HTU21D;53638;51.062;5.804;2023-04-25T10:09:39;11.76;110.36
66726;HTU21D;53638;51.062;5.804;2023-04-25T10:15:47;11.42;105.72
66726;HTU21D;53638;51.062;5.804;2023-04-25T10:18:14;11.41;105.83
66726;HTU21D;53638;51.062;5.804;2023-04-25T10:20:40;11.45;105.23
66726;HTU21D;53638;51.062;5.804;2023-04-25T10:23:13;11.54;103.83
66726;HTU21D;53638;51.062;5.804;2023-04-25T10:25:41;11.71;104.58
66726;HTU21D;53638;51.062;5.804;2023-04-25T10:28:07;11.81;101.70
66726;HTU21D;53638;51.062;5.804;2023-04-25T10:30:33;11.89;100.51
66726;HTU21D;53638;51.062;5.804;2023-04-25T10:35:27;12.07;99.72
66726;HTU21D;53638;51.062;5.804;2023-04-25T10:40:23;12.19;100.16
66726;HTU21D;53638;51.062;5.804;2023-04-25T10:42:52;12.28;96.47
66726;HTU21D;53638;51.062;5.804;2023-04-25T10:45:18;12.56;96.39
66726;HTU21D;53638;51.062;5.804;2023-04-25T10:47:44;13.05;93.86
66726;HTU21D;53638;51.062;5.804;2023-04-25T10:50:11;13.68;95.18
66726;HTU21D;53638;51.062;5.804;2023-04-25T10:52:40;14.09;92.54
66726;HTU21D;53638;51.062;5.804;2023-04-25T10:55:06;14.23;96.19
66726;HTU21D;53638;51.062;5.804;2023-04-25T10:57:43;14.43;97.68
66726;HTU21D;53638;51.062;5.804;2023-04-25T11:00:14;14.77;89.54
66726;HTU21D;53638;51.062;5.804;2023-04-25T11:02:43;15.08;89.92
66726;HTU21D;53638;51.062;5.804;2023-04-25T11:05:19;15.40;87.01
66726;HTU21D;53638;51.062;5.804;2023-04-25T11:07:51;15.62;88.28
66726;HTU21D;53638;51.062;5.804;2023-04-25T11:10:17;15.91;86.06
66726;HTU21D;53638;51.062;5.804;2023-04-25T11:12:45;15.97;88.72
66726;HTU21D;53638;51.062;5.804;2023-04-25T11:15:11;15.85;85.72
66726;HTU21D;53638;51.062;5.804;2023-04-25T11:17:37;15.68;85.18
66726;HTU21D;53638;51.062;5.804;2023-04-25T11:20:05;15.42;82.19
66726;HTU21D;53638;51.062;5.804;2023-04-25T11:22:59;15.15;81.98
66726;HTU21D;53638;51.062;5.804;2023-04-25T11:25:26;14.85;82.40
66726;HTU21D;53638;51.062;5.804;2023-04-25T11:28:08;14.72;82.46
66726;HTU21D;53638;51.062;5.804;2023-04-25T11:30:48;14.94;82.84
66726;HTU21D;53638;51.062;5.804;2023-04-25T11:33:16;15.13;81.36
66726;HTU21D;53638;51.062;5.804;2023-04-25T11:35:42;15.57;80.27
66726;HTU21D;53638;51.062;5.804;2023-04-25T11:38:09;16.43;79.40
66726;HTU21D;53638;51.062;5.804;2023-04-25T11:40:36;18.59;74.47
66726;HTU21D;53638;51.062;5.804;2023-04-25T11:43:02;21.16;65.90
66726;HTU21D;53638;51.062;5.804;2023-04-25T11:45:29;22.98;63.64
66726;HTU21D;53638;51.062;5.804;2023-04-25T11:47:56;23.29;59.90
66726;HTU21D;53638;51.062;5.804;2023-04-25T11:50:22;21.14;63.91
66726;HTU21D;53638;51.062;5.804;2023-04-25T11:52:48;19.48;63.98
66726;HTU21D;53638;51.062;5.804;2023-04-25T11:55:18;19.76;63.65
66726;HTU21D;53638;51.062;5.804;2023-04-25T11:57:47;20.69;62.34
66726;HTU21D;53638;51.062;5.804;2023-04-25T12:00:18;21.59;59.13
66726;HTU21D;53638;51.062;5.804;2023-04-25T12:02:52;22.38;56.88
66726;HTU21D;53638;51.062;5.804;2023-04-25T12:05:19;22.95;54.16
66726;HTU21D;53638;51.062;5.804;2023-04-25T12:07:46;22.11;55.65
66726;HTU21D;53638;51.062;5.804;2023-04-25T12:10:15;20.92;58.22
66726;HTU21D;53638;51.062;5.804;2023-04-25T12:12:44;21.23;57.33
66726;HTU21D;53638;51.062;5.804;2023-04-25T12:15:13;22.34;53.50
66726;HTU21D;53638;51.062;5.804;2023-04-25T12:17:44;23.01;50.15
66726;HTU21D;53638;51.062;5.804;2023-04-25T12:20:13;22.97;50.24
66726;HTU21D;53638;51.062;5.804;2023-04-25T12:22:43;22.03;51.52
66726;HTU21D;53638;51.062;5.804;2023-04-25T12:25:11;20.26;53.06
66726;HTU21D;53638;51.062;5.804;2023-04-25T12:27:39;18.58;57.92
66726;HTU21D;53638;51.062;5.804;2023-04-25T12:30:08;17.09;61.15
66726;HTU21D;53638;51.062;5.804;2023-04-25T12:32:36;15.77;67.47
66726;HTU21D;53638;51.062;5.804;2023-04-25T12:35:05;14.60;78.01
66726;HTU21D;53638;51.062;5.804;2023-04-25T12:37:32;13.60;86.60
66726;HTU21D;53638;51.062;5.804;2023-04-25T12:39:58;13.12;99.28
66726;HTU21D;53638;51.062;5.804;2023-04-25T12:42:23;12.96;105.31
66726;HTU21D;53638;51.062;5.804;2023-04-25T12:44:49;12.91;110.17
66726;HTU21D;53638;51.062;5.804;2023-04-25T12:47:16;13.02;112.91
66726;HTU21D;53638;51.062;5.804;2023-04-25T12:49:41;13.20;106.21
66726;HTU21D;53638;51.062;5.804;2023-04-25T12:52:07;13.54;103.60
66726;HTU21D;53638;51.062;5.804;2023-04-25T12:54:34;13.94;100.32
66726;HTU21D;53638;51.062;5.804;2023-04-25T12:57:01;14.33;96.73
66726;HTU21D;53638;51.062;5.804;2023-04-25T12:59:28;14.63;90.45
66726;HTU21D;53638;51.062;5.804;2023-04-25T13:01:54;14.88;90.10
66726;HTU21D;53638;51.062;5.804;2023-04-25T13:04:20;15.13;86.93
66726;HTU21D;53638;51.062;5.804;2023-04-25T13:06:47;15.37;92.70
66726;HTU21D;53638;51.062;5.804;2023-04-25T13:09:13;15.98;91.56
66726;HTU21D;53638;51.062;5.804;2023-04-25T13:11:39;18.61;86.98
66726;HTU21D;53638;51.062;5.804;2023-04-25T13:14:06;20.41;77.70
66726;HTU21D;53638;51.062;5.804;2023-04-25T13:16:32;20.77;73.54
66726;HTU21D;53638;51.062;5.804;2023-04-25T13:19:01;20.70;69.52
66726;HTU21D;53638;51.062;5.804;2023-04-25T13:21:30;20.37;75.27
66726;HTU21D;53638;51.062;5.804;2023-04-25T13:23:57;19.82;74.31
66726;HTU21D;53638;51.062;5.804;2023-04-25T13:26:25;18.61;79.01
66726;HTU21D;53638;51.062;5.804;2023-04-25T13:28:51;19.66;77.70
66726;HTU21D;53638;51.062;5.804;2023-04-25T13:31:20;20.10;72.38
66726;HTU21D;53638;51.062;5.804;2023-04-25T13:33:53;21.90;70.74
66726;HTU21D;53638;51.062;5.804;2023-04-25T13:36:26;23.06;65.75
66726;HTU21D;53638;51.062;5.804;2023-04-25T13:38:56;21.81;71.68
66726;HTU21D;53638;51.062;5.804;2023-04-25T13:41:25;21.06;73.44
66726;HTU21D;53638;51.062;5.804;2023-04-25T13:44:03;23.14;69.07
66726;HTU21D;53638;51.062;5.804;2023-04-25T13:47:09;21.69;67.52
66726;HTU21D;53638;51.062;5.804;2023-04-25T13:49:37;19.43;73.80
66726;HTU21D;53638;51.062;5.804;2023-04-25T13:52:15;17.91;76.38
66726;HTU21D;53638;51.062;5.804;2023-04-25T13:54:46;16.79;80.08
66726;HTU21D;53638;51.062;5.804;2023-04-25T13:57:13;16.26;78.75
66726;HTU21D;53638;51.062;5.804;2023-04-25T13:59:42;16.07;77.60
66726;HTU21D;53638;51.062;5.804;2023-04-25T14:02:43;16.63;77.71
66726;HTU21D;53638;51.062;5.804;2023-04-25T14:04:58;19.76;67.60
66726;HTU21D;53638;51.062;5.804;2023-04-25T14:07:44;20.47;62.12
66726;HTU21D;53638;51.062;5.804;2023-04-25T14:10:32;20.89;60.18
66726;HTU21D;53638;51.062;5.804;2023-04-25T14:13:37;21.50;58.19
66726;HTU21D;53638;51.062;5.804;2023-04-25T14:16:06;22.85;55.55
66726;HTU21D;53638;51.062;5.804;2023-04-25T14:18:32;23.52;51.77
66726;HTU21D;53638;51.062;5.804;2023-04-25T14:21:43;23.65;49.69
66726;HTU21D;53638;51.062;5.804;2023-04-25T14:24:17;24.12;48.77
66726;HTU21D;53638;51.062;5.804;2023-04-25T14:26:43;24.63;46.83
66726;HTU21D;53638;51.062;5.804;2023-04-25T14:29:09;25.68;45.77
66726;HTU21D;53638;51.062;5.804;2023-04-25T14:31:51;26.40;44.72
66726;HTU21D;53638;51.062;5.804;2023-04-25T14:34:31;25.15;44.47
66726;HTU21D;53638;51.062;5.804;2023-04-25T14:37:18;22.77;46.89
66726;HTU21D;53638;51.062;5.804;2023-04-25T14:39:46;20.30;51.74
66726;HTU21D;53638;51.062;5.804;2023-04-25T14:42:12;18.26;56.79
66726;HTU21D;53638;51.062;5.804;2023-04-25T14:45:07;16.64;63.95
66726;HTU21D;53638;51.062;5.804;2023-04-25T14:47:37;15.71;66.47
66726;HTU21D;53638;51.062;5.804;2023-04-25T14:50:07;15.13;68.23
66726;HTU21D;53638;51.062;5.804;2023-04-25T14:52:38;14.82;67.81
66726;HTU21D;53638;51.062;5.804;2023-04-25T14:55:05;14.73;67.53
66726;HTU21D;53638;51.062;5.804;2023-04-25T14:57:34;14.80;67.91
66726;HTU21D;53638;51.062;5.804;2023-04-25T15:03:29;15.08;71.28
66726;HTU21D;53638;51.062;5.804;2023-04-25T15:06:50;17.36;69.85
66726;HTU21D;53638;51.062;5.804;2023-04-25T15:09:50;21.00;59.43
66726;HTU21D;53638;51.062;5.804;2023-04-25T15:16:03;24.61;49.02
66726;HTU21D;53638;51.062;5.804;2023-04-25T15:19:56;25.09;47.78
66726;HTU21D;53638;51.062;5.804;2023-04-25T15:23:35;25.68;45.22
66726;HTU21D;53638;51.062;5.804;2023-04-25T15:31:50;25.93;44.76
66726;HTU21D;53638;51.062;5.804;2023-04-25T15:42:39;22.32;49.73
66726;HTU21D;53638;51.062;5.804;2023-04-25T15:49:58;23.30;47.30
66726;HTU21D;53638;51.062;5.804;2023-04-25T15:53:14;23.58;46.34
66726;HTU21D;53638;51.062;5.804;2023-04-25T15:57:19;23.45;46.10
66726;HTU21D;53638;51.062;5.804;2023-04-25T16:00:40;23.36;45.35
66726;HTU21D;53638;51.062;5.804;2023-04-25T16:03:36;23.54;44.65
66726;HTU21D;53638;51.062;5.804;2023-04-25T16:07:13;23.50;44.98
66726;HTU21D;53638;51.062;5.804;2023-04-25T16:09:44;23.72;44.93
66726;HTU21D;53638;51.062;5.804;2023-04-25T16:12:34;23.83;44.54
66726;HTU21D;53638;51.062;5.804;2023-04-25T16:15:06;24.01;44.19
66726;HTU21D;53638;51.062;5.804;2023-04-25T16:18:10;24.10;43.94
66726;HTU21D;53638;51.062;5.804;2023-04-25T16:21:05;22.34;46.02
66726;HTU21D;53638;51.062;5.804;2023-04-25T16:23:34;20.41;51.92